Time;durP1;ratioP1;P1;durP2;ratioP2;P2;SDS_P1;SDS_P2;PMS_P1;PMS_P2;Temp;Humidity;BMP_temperature;BMP_pressure;BME280_temperature;BME280_humidity;BME280_pressure;Samples;Min_cycle;Max_cycle;Signal;HPM_P1;HPM_P2
2022/11/28 00:00:36;;;;;;;0.65;0.65;;;;;;;8.13;76.41;100573.63;5146101;28;20048;-88
2022/11/28 00:03:07;;;;;;;0.60;0.60;;;;;;;8.17;76.00;100566.59;5169523;28;20086;-88
2022/11/28 00:05:37;;;;;;;1.23;1.15;;;;;;;8.12;76.38;100565.81;5133952;28;20034;-87
2022/11/28 00:08:08;;;;;;;1.15;1.15;;;;;;;8.13;76.05;100565.78;5152855;28;20072;-87
2022/11/28 00:10:39;;;;;;;0.45;0.45;;;;;;;8.10;76.28;100563.22;5148295;28;20305;-87
2022/11/28 00:13:10;;;;;;;0.65;0.65;;;;;;;8.10;76.50;100557.16;5166603;28;20021;-89
2022/11/28 00:15:40;;;;;;;0.35;0.35;;;;;;;8.13;76.17;100564.91;5149810;28;20451;-88
2022/11/28 00:18:11;;;;;;;1.42;1.42;;;;;;;8.16;76.98;100552.66;5136854;28;20025;-88
2022/11/28 00:20:41;;;;;;;0.30;0.30;;;;;;;8.17;76.24;100554.38;5150172;28;20165;-88
2022/11/28 00:23:11;;;;;;;0.68;0.68;;;;;;;8.15;76.82;100556.16;5165148;28;20053;-88
2022/11/28 00:25:42;;;;;;;1.40;0.93;;;;;;;8.14;76.22;100549.19;5171102;28;20074;-87
2022/11/28 00:28:12;;;;;;;3.95;1.85;;;;;;;8.15;76.42;100540.47;5174509;28;20026;-87
2022/11/28 00:30:43;;;;;;;1.52;1.42;;;;;;;8.17;76.59;100538.69;5186158;28;20041;-86
2022/11/28 00:33:13;;;;;;;1.45;1.35;;;;;;;8.21;76.04;100534.28;5157382;28;20295;-87
2022/11/28 00:35:44;;;;;;;1.60;1.48;;;;;;;8.19;76.63;100531.69;5174795;28;20042;-87
2022/11/28 00:38:14;;;;;;;0.50;0.50;;;;;;;8.21;76.71;100522.97;5162625;28;20058;-87
2022/11/28 00:40:45;;;;;;;0.52;0.52;;;;;;;8.22;76.44;100520.31;5145584;28;20042;-87
2022/11/28 00:43:15;;;;;;;1.48;1.38;;;;;;;8.23;76.46;100505.47;5147972;28;20363;-88
2022/11/28 00:45:46;;;;;;;0.55;0.55;;;;;;;8.14;77.90;100509.16;5144932;28;20576;-88
2022/11/28 00:48:16;;;;;;;1.02;0.98;;;;;;;8.22;76.91;100501.16;5179271;28;20330;-88
2022/11/28 00:50:47;;;;;;;0.20;0.20;;;;;;;8.19;77.09;100499.44;5159922;28;20301;-88
2022/11/28 00:53:18;;;;;;;0.90;0.90;;;;;;;8.13;77.55;100505.69;5148167;28;20049;-88
2022/11/28 00:55:48;;;;;;;0.38;0.38;;;;;;;8.12;77.56;100510.94;5160799;28;20577;-88
2022/11/28 00:58:19;;;;;;;2.17;1.85;;;;;;;8.23;77.11;100510.69;5162180;28;20034;-89
2022/11/28 01:00:49;;;;;;;0.82;0.82;;;;;;;8.11;77.60;100504.84;5144944;28;20034;-88
2022/11/28 01:03:19;;;;;;;1.77;1.35;;;;;;;8.16;76.75;100505.59;5132181;28;20033;-85
2022/11/28 01:05:50;;;;;;;1.40;1.30;;;;;;;8.10;77.72;100502.28;5178520;28;20052;-88
2022/11/28 01:08:20;;;;;;;0.50;0.50;;;;;;;7.87;79.12;100494.00;5182914;28;20129;-88
2022/11/28 01:10:51;;;;;;;0.25;0.25;;;;;;;8.01;78.44;100493.75;5154269;28;20045;-88
2022/11/28 01:13:21;;;;;;;0.47;0.47;;;;;;;7.97;79.07;100486.00;5145869;28;20037;-88
2022/11/28 01:15:52;;;;;;;0.65;0.65;;;;;;;8.00;78.90;100488.53;5147374;28;20353;-88
2022/11/28 01:18:22;;;;;;;1.13;0.65;;;;;;;8.11;77.37;100476.09;5141576;28;20089;-89
2022/11/28 01:20:53;;;;;;;3.55;1.42;;;;;;;7.97;78.98;100480.75;5155933;28;20560;-89
2022/11/28 01:23:23;;;;;;;1.38;1.30;;;;;;;8.07;78.49;100482.28;5140934;28;20385;-89
2022/11/28 01:25:54;;;;;;;1.95;0.98;;;;;;;7.96;79.22;100477.28;5172269;28;20038;-88
2022/11/28 01:28:24;;;;;;;0.60;0.60;;;;;;;7.98;78.45;100485.94;5175497;28;20064;-89
2022/11/28 01:30:55;;;;;;;0.40;0.40;;;;;;;8.02;78.07;100484.97;5140797;28;20533;-88
2022/11/28 01:33:25;;;;;;;1.33;1.25;;;;;;;8.02;78.13;100478.91;5157822;28;20022;-88
2022/11/28 01:35:57;;;;;;;0.73;0.73;;;;;;;8.07;78.35;100473.59;5148567;28;20038;-88
2022/11/28 01:38:28;;;;;;;0.45;0.45;;;;;;;8.03;77.93;100483.25;5161393;28;20373;-88
2022/11/28 01:40:58;;;;;;;1.17;1.17;;;;;;;8.00;79.14;100480.69;5140562;28;20584;-88
2022/11/28 01:43:30;;;;;;;0.40;0.40;;;;;;;8.01;78.59;100478.06;5158582;28;20034;-88
2022/11/28 01:46:01;;;;;;;0.80;0.80;;;;;;;7.97;78.70;100484.22;5170094;28;20554;-89
2022/11/28 01:48:37;;;;;;;0.68;0.68;;;;;;;7.98;78.38;100479.84;5159216;28;20456;-88
2022/11/28 01:51:09;;;;;;;1.30;1.27;;;;;;;8.08;78.24;100473.53;5140164;28;20534;-88
2022/11/28 01:53:43;;;;;;;0.50;0.50;;;;;;;7.98;78.25;100469.41;5173082;28;20018;-87
2022/11/28 01:56:20;;;;;;;1.58;1.48;;;;;;;8.01;79.10;100471.97;5159577;28;20073;-88
2022/11/28 01:58:56;;;;;;;0.98;0.68;;;;;;;7.93;79.17;100472.13;5125496;28;20034;-87
2022/11/28 02:01:27;;;;;;;0.60;0.60;;;;;;;8.03;78.25;100473.63;5172869;28;20046;-88
2022/11/28 02:03:58;;;;;;;0.40;0.40;;;;;;;8.01;78.05;100467.59;5125923;28;20523;-87
2022/11/28 02:06:31;;;;;;;1.00;1.00;;;;;;;7.98;78.69;100474.63;5153447;28;20052;-88
2022/11/28 02:09:01;;;;;;;0.73;0.73;;;;;;;7.96;78.51;100474.66;5155625;28;20030;-88
2022/11/28 02:11:38;;;;;;;0.55;0.55;;;;;;;8.04;78.37;100482.34;5172606;28;20045;-88
2022/11/28 02:14:14;;;;;;;0.40;0.40;;;;;;;8.06;78.41;100482.31;5127090;28;20109;-88
2022/11/28 02:16:53;;;;;;;0.93;0.80;;;;;;;7.95;79.40;100480.78;5162826;28;20129;-88
2022/11/28 02:19:57;;;;;;;0.60;0.60;;;;;;;7.95;79.09;100479.94;5151101;28;20060;-88
2022/11/28 02:22:27;;;;;;;;;;;;;;;8.01;78.69;100485.03;5121501;28;20041;-88
2022/11/28 02:25:31;;;;;;;0.35;0.35;;;;;;;8.07;77.99;100484.88;5142231;28;19922;-87
2022/11/28 02:28:23;;;;;;;0.77;0.77;;;;;;;8.09;78.24;100479.66;5141625;28;20049;-88
2022/11/28 02:31:00;;;;;;;3.15;1.60;;;;;;;8.11;78.34;100476.09;5154387;28;20037;-88
2022/11/28 02:33:41;;;;;;;1.30;1.00;;;;;;;8.12;77.98;100471.72;5124747;28;20065;-88
2022/11/28 02:36:17;;;;;;;0.68;0.68;;;;;;;8.03;79.01;100475.41;5147383;28;20490;-88
2022/11/28 02:39:01;;;;;;;0.65;0.65;;;;;;;8.08;78.29;100468.31;5142348;28;20042;-88
2022/11/28 02:41:53;;;;;;;0.52;0.52;;;;;;;8.05;78.78;100463.19;5171430;28;20041;-88
2022/11/28 02:44:33;;;;;;;0.88;0.88;;;;;;;8.13;78.50;100458.66;5173233;28;20042;-88
2022/11/28 02:47:12;;;;;;;0.65;0.65;;;;;;;8.14;78.53;100457.72;5157504;28;20113;-88
2022/11/28 02:50:04;;;;;;;0.60;0.60;;;;;;;8.07;78.82;100452.69;5175480;28;20030;-87
2022/11/28 02:52:55;;;;;;;1.77;1.67;;;;;;;8.07;78.39;100447.47;5130841;28;20026;-88
2022/11/28 02:55:26;;;;;;;0.63;0.52;;;;;;;7.99;79.81;100455.44;5156003;28;20034;-88
2022/11/28 02:57:57;;;;;;;0.30;0.30;;;;;;;8.07;79.17;100471.81;5130442;28;20034;-88
2022/11/28 03:00:34;;;;;;;0.40;0.40;;;;;;;8.12;78.63;100456.03;5157113;28;20065;-88
2022/11/28 03:03:10;;;;;;;0.30;0.30;;;;;;;8.14;78.37;100464.72;5144927;28;20027;-88
2022/11/28 03:05:58;;;;;;;0.60;0.60;;;;;;;8.16;77.77;100462.94;5145837;28;20197;-88
2022/11/28 03:08:54;;;;;;;0.77;0.77;;;;;;;8.09;78.32;100464.81;5131030;28;20035;-88
2022/11/28 03:11:46;;;;;;;0.30;0.30;;;;;;;8.08;78.41;100462.25;5134585;28;20357;-87
2022/11/28 03:14:49;;;;;;;0.52;0.52;;;;;;;8.14;78.61;100460.34;5144601;28;20281;-88
2022/11/28 03:17:43;;;;;;;1.05;1.02;;;;;;;8.16;78.41;100457.72;5166077;28;20047;-88
2022/11/28 03:20:44;;;;;;;0.50;0.50;;;;;;;8.17;77.94;100457.69;5157914;28;20404;-88
2022/11/28 03:23:19;;;;;;;0.40;0.40;;;;;;;8.18;78.33;100448.09;5157792;28;20042;-88
2022/11/28 03:26:17;;;;;;;0.70;0.70;;;;;;;8.13;78.31;100452.53;5147102;28;20562;-88
2022/11/28 03:29:06;;;;;;;0.30;0.30;;;;;;;8.11;78.11;100455.19;5182460;28;20029;-88
2022/11/28 03:31:42;;;;;;;0.30;0.30;;;;;;;8.08;78.44;100450.03;5174442;28;20083;-88
2022/11/28 03:34:18;;;;;;;0.40;0.40;;;;;;;8.12;78.50;100446.47;5177765;28;20480;-88
2022/11/28 03:37:00;;;;;;;0.85;0.85;;;;;;;8.26;78.32;100440.06;5132160;28;20082;-88
2022/11/28 03:39:36;;;;;;;0.75;0.75;;;;;;;8.15;78.55;100446.38;5157615;28;20240;-88
2022/11/28 03:42:14;;;;;;;0.40;0.40;;;;;;;8.30;77.39;100449.59;5174485;28;20125;-88
2022/11/28 03:44:52;;;;;;;0.63;0.63;;;;;;;8.17;78.12;100446.38;5148262;28;20034;-88
2022/11/28 03:47:30;;;;;;;1.10;1.10;;;;;;;8.16;77.96;100440.28;5149640;28;20076;-88
2022/11/28 03:50:07;;;;;;;0.32;0.32;;;;;;;8.17;77.87;100433.31;5136694;28;20538;-88
2022/11/28 03:52:44;;;;;;;0.82;0.82;;;;;;;8.14;78.29;100434.22;5161480;28;20030;-88
2022/11/28 03:55:29;;;;;;;0.73;0.73;;;;;;;8.21;77.40;100440.19;5148741;28;20033;-88
2022/11/28 03:58:50;;;;;;;3.58;1.83;;;;;;;8.25;77.72;100441.84;5149315;28;20085;-88
2022/11/28 04:01:35;;;;;;;0.47;0.47;;;;;;;8.24;77.79;100428.78;5132887;28;20049;-88
2022/11/28 04:04:18;;;;;;;0.90;0.90;;;;;;;8.19;78.04;100427.16;5145069;28;20041;-88
2022/11/28 04:07:03;;;;;;;0.50;0.50;;;;;;;8.29;77.53;100437.41;5157488;28;20045;-88
2022/11/28 04:09:57;;;;;;;1.42;1.33;;;;;;;8.21;77.93;100436.72;5143321;28;20029;-88
2022/11/28 04:12:36;;;;;;;0.40;0.40;;;;;;;8.16;77.76;100437.66;5154089;28;20467;-88
2022/11/28 04:15:13;;;;;;;0.43;0.43;;;;;;;8.29;77.59;100453.09;5160929;28;20327;-88
2022/11/28 04:18:08;;;;;;;0.40;0.40;;;;;;;8.23;77.66;100453.19;5165154;28;20084;-89
2022/11/28 04:20:47;;;;;;;0.35;0.35;;;;;;;8.18;77.87;100454.19;5126425;28;20048;-88
2022/11/28 04:23:20;;;;;;;17.85;1.02;;;;;;;8.17;77.69;100462.91;5144060;28;20026;-88
2022/11/28 04:26:04;;;;;;;0.55;0.55;;;;;;;8.18;77.37;100462.00;5126631;28;20038;-88
2022/11/28 04:28:36;;;;;;;13.25;2.67;;;;;;;8.06;78.41;100462.25;5145712;28;20049;-88
2022/11/28 04:31:08;;;;;;;0.63;0.63;;;;;;;8.13;78.15;100463.00;5143695;28;20038;-88
2022/11/28 04:33:43;;;;;;;0.52;0.52;;;;;;;8.10;77.89;100469.16;5143931;28;20365;-88
2022/11/28 04:36:17;;;;;;;0.60;0.60;;;;;;;8.13;77.76;100469.09;5158386;28;20686;-88
2022/11/28 04:38:55;;;;;;;3.10;1.95;;;;;;;8.13;77.77;100463.88;5130868;28;20045;-88
2022/11/28 04:41:33;;;;;;;6.10;1.55;;;;;;;8.15;78.04;100467.28;5171383;28;20068;-88
2022/11/28 04:44:18;;;;;;;1.67;1.40;;;;;;;8.11;77.73;100465.66;5137819;28;20037;-88
2022/11/28 04:46:53;;;;;;;0.80;0.80;;;;;;;8.16;77.89;100462.94;5146741;28;20048;-88
2022/11/28 04:49:25;;;;;;;0.50;0.50;;;;;;;8.12;78.03;100456.94;5150058;28;20034;-88
2022/11/28 04:52:22;;;;;;;0.20;0.20;;;;;;;8.12;77.93;100462.16;5154604;28;20038;-87
2022/11/28 04:54:58;;;;;;;0.40;0.40;;;;;;;8.11;77.88;100462.16;5175833;28;20038;-89
2022/11/28 04:57:44;;;;;;;0.73;0.73;;;;;;;8.14;77.71;100464.72;5138990;28;20037;-88
2022/11/28 05:00:18;;;;;;;0.32;0.32;;;;;;;8.15;77.67;100475.13;5174445;28;20511;-88
2022/11/28 05:02:52;;;;;;;0.70;0.70;;;;;;;8.14;77.61;100465.56;5156727;28;20546;-88
2022/11/28 05:05:25;;;;;;;1.20;1.15;;;;;;;8.15;77.50;100453.38;5166680;28;20122;-89
2022/11/28 05:07:58;;;;;;;0.50;0.50;;;;;;;8.12;77.83;100459.53;5122310;28;20381;-88
2022/11/28 05:10:29;;;;;;;1.50;0.93;;;;;;;8.09;77.74;100462.22;5171203;28;20355;-87
2022/11/28 05:12:59;;;;;;;1.30;1.20;;;;;;;8.12;77.62;100462.16;5157541;28;20029;-88
2022/11/28 05:15:30;;;;;;;0.70;0.70;;;;;;;8.12;77.32;100470.00;5142752;28;20034;-87
2022/11/28 05:18:01;;;;;;;1.23;1.23;;;;;;;8.09;77.63;100467.44;5159534;28;20076;-86
2022/11/28 05:20:33;;;;;;;0.47;0.47;;;;;;;8.10;77.76;100469.16;5118731;28;20503;-86
2022/11/28 05:23:03;;;;;;;1.27;1.20;;;;;;;8.09;77.78;100471.81;5147968;28;20062;-87
2022/11/28 05:25:37;;;;;;;0.90;0.68;;;;;;;8.07;78.22;100465.75;5137768;28;20309;-88
2022/11/28 05:28:07;;;;;;;0.70;0.70;;;;;;;8.12;77.62;100463.88;5132153;28;20022;-87
2022/11/28 05:30:38;;;;;;;0.88;0.88;;;;;;;8.14;77.35;100468.19;5137559;28;20045;-85
2022/11/28 05:33:08;;;;;;;1.00;1.00;;;;;;;8.14;77.12;100462.97;5157783;28;20568;-86
2022/11/28 05:35:39;;;;;;;0.80;0.80;;;;;;;8.10;77.53;100465.69;5110020;28;20046;-86
2022/11/28 05:38:09;;;;;;;2.88;2.28;;;;;;;8.10;77.50;100466.53;5160220;28;20061;-87
2022/11/28 05:40:43;;;;;;;0.60;0.60;;;;;;;8.13;77.41;100463.88;5138517;28;20604;-86
2022/11/28 05:43:13;;;;;;;0.50;0.50;;;;;;;8.14;77.60;100465.56;5185798;28;20061;-87
2022/11/28 05:45:44;;;;;;;1.10;1.05;;;;;;;8.10;77.17;100469.16;5179355;28;20034;-87
2022/11/28 05:48:15;;;;;;;1.52;1.42;;;;;;;8.14;77.48;100475.19;5155241;28;20017;-86
2022/11/28 05:50:45;;;;;;;2.15;1.98;;;;;;;8.14;77.31;100464.72;5183585;28;20030;-84
2022/11/28 05:53:17;;;;;;;0.73;0.73;;;;;;;8.11;77.30;100455.19;5154445;28;20084;-86
2022/11/28 05:55:48;;;;;;;2.72;1.52;;;;;;;8.07;77.55;100453.53;5169094;28;20552;-86
2022/11/28 05:58:21;;;;;;;0.40;0.40;;;;;;;8.14;77.53;100452.50;5167826;28;20066;-87
2022/11/28 06:00:55;;;;;;;0.95;0.95;;;;;;;8.00;77.98;100442.38;5165155;28;20233;-86
2022/11/28 06:03:25;;;;;;;0.70;0.70;;;;;;;7.99;78.05;100438.03;5183590;28;20137;-86
2022/11/28 06:05:56;;;;;;;0.70;0.70;;;;;;;8.05;77.75;100423.97;5156804;28;20085;-86
2022/11/28 06:08:26;;;;;;;1.17;1.17;;;;;;;7.99;77.79;100421.47;5171760;28;20541;-86
2022/11/28 06:10:58;;;;;;;0.68;0.68;;;;;;;8.05;77.40;100429.22;5172744;28;20037;-88
2022/11/28 06:13:29;;;;;;;1.17;1.08;;;;;;;8.06;77.16;100427.44;5139841;28;20183;-87
2022/11/28 06:16:07;;;;;;;0.55;0.55;;;;;;;8.05;77.56;100423.97;5159232;28;20125;-87
2022/11/28 06:18:38;;;;;;;0.40;0.40;;;;;;;8.00;77.67;100420.59;5156523;28;20354;-86
2022/11/28 06:21:11;;;;;;;1.30;1.20;;;;;;;8.03;77.49;100426.59;5168548;28;20035;-87
2022/11/28 06:23:41;;;;;;;1.40;1.30;;;;;;;8.00;77.65;100433.66;5128700;28;20447;-87
2022/11/28 06:26:15;;;;;;;0.60;0.60;;;;;;;8.01;77.41;100435.38;5156443;28;20125;-86
2022/11/28 06:28:46;;;;;;;0.57;0.57;;;;;;;8.02;77.39;100431.88;5148776;28;20084;-87
2022/11/28 06:31:19;;;;;;;28.10;1.65;;;;;;;8.02;77.71;100431.88;5156617;28;20068;-88
2022/11/28 06:33:50;;;;;;;1.00;0.80;;;;;;;8.03;77.66;100431.84;5141269;28;20028;-86
2022/11/28 06:36:20;;;;;;;0.47;0.47;;;;;;;8.02;77.23;100435.34;5156136;28;20586;-87
2022/11/28 06:38:51;;;;;;;1.20;1.10;;;;;;;8.00;77.67;100433.66;5123862;28;20034;-86
2022/11/28 06:41:22;;;;;;;0.60;0.60;;;;;;;8.00;77.73;100431.91;5156003;28;20046;-85
2022/11/28 06:43:53;;;;;;;0.77;0.77;;;;;;;8.01;77.69;100427.53;5171332;28;20042;-87
2022/11/28 06:46:24;;;;;;;0.75;0.75;;;;;;;8.01;77.71;100435.38;5181521;28;20038;-86
2022/11/28 06:48:54;;;;;;;1.70;1.50;;;;;;;8.00;78.42;100441.50;5177782;28;20033;-87
2022/11/28 06:51:25;;;;;;;0.50;0.50;;;;;;;8.01;77.95;100435.38;5132178;28;20112;-87
2022/11/28 06:53:55;;;;;;;0.90;0.90;;;;;;;7.99;77.71;100440.66;5161782;28;20021;-88
2022/11/28 06:56:26;;;;;;;1.67;1.58;;;;;;;8.01;77.74;100443.22;5132602;28;20089;-87
2022/11/28 06:58:58;;;;;;;0.40;0.40;;;;;;;8.01;78.11;100448.44;5141248;28;20039;-88
2022/11/28 07:01:30;;;;;;;1.08;0.80;;;;;;;8.04;77.99;100448.38;5171370;28;20380;-88
2022/11/28 07:04:00;;;;;;;0.63;0.63;;;;;;;8.03;77.76;100446.66;5145215;28;20101;-86
2022/11/28 07:06:33;;;;;;;1.40;1.35;;;;;;;8.01;77.56;100448.44;5119616;28;20497;-87
2022/11/28 07:09:03;;;;;;;1.70;1.10;;;;;;;7.99;77.85;100445.88;5154951;28;20019;-88
2022/11/28 07:11:34;;;;;;;1.58;1.48;;;;;;;8.00;78.44;100449.34;5154994;28;20049;-88
2022/11/28 07:14:04;;;;;;;1.00;0.95;;;;;;;8.03;77.80;100457.13;5174706;28;20030;-88
2022/11/28 07:16:35;;;;;;;0.93;0.90;;;;;;;8.00;78.36;100454.56;5140532;28;20237;-88
2022/11/28 07:19:05;;;;;;;0.98;0.98;;;;;;;7.99;78.52;100451.09;5156895;28;20026;-88
2022/11/28 07:21:36;;;;;;;0.35;0.35;;;;;;;8.04;77.89;100453.63;5154644;28;20075;-89
2022/11/28 07:24:07;;;;;;;0.52;0.52;;;;;;;8.03;77.99;100459.72;5157581;28;20026;-87
2022/11/28 07:26:37;;;;;;;1.17;1.15;;;;;;;8.04;77.87;100453.63;5159573;28;20042;-88
2022/11/28 07:29:14;;;;;;;0.40;0.40;;;;;;;8.05;77.97;100465.78;5176040;28;20045;-85
2022/11/28 07:31:44;;;;;;;1.63;1.52;;;;;;;8.05;77.96;100455.34;5158925;28;20046;-85
2022/11/28 07:34:15;;;;;;;2.63;2.03;;;;;;;8.11;78.01;100465.66;5130383;28;20530;-86
2022/11/28 07:36:46;;;;;;;1.15;1.15;;;;;;;8.03;78.03;100462.34;5134568;28;20038;-85
2022/11/28 07:39:16;;;;;;;0.40;0.40;;;;;;;8.03;78.54;100467.56;5176390;28;20022;-85
2022/11/28 07:41:46;;;;;;;1.85;1.52;;;;;;;8.07;78.11;100458.75;5144243;28;20068;-85
2022/11/28 07:44:17;;;;;;;0.60;0.60;;;;;;;8.01;78.31;100453.66;5146201;28;20026;-85
2022/11/28 07:46:48;;;;;;;0.57;0.57;;;;;;;8.05;78.35;100455.34;5158388;28;20049;-85
2022/11/28 07:49:19;;;;;;;0.40;0.40;;;;;;;8.09;77.99;100453.53;5158947;28;20415;-86
2022/11/28 07:51:49;;;;;;;1.33;1.27;;;;;;;8.09;78.12;100464.81;5144183;28;20500;-86
2022/11/28 07:54:20;;;;;;;0.32;0.32;;;;;;;8.08;78.45;100465.72;5145120;28;20049;-85
2022/11/28 07:56:50;;;;;;;0.30;0.30;;;;;;;8.06;78.32;100462.25;5162666;28;20038;-86
2022/11/28 07:59:21;;;;;;;0.52;0.52;;;;;;;8.06;78.55;100466.63;5164068;28;20030;-85
2022/11/28 08:01:52;;;;;;;4.63;1.30;;;;;;;8.06;78.65;100462.25;5160376;28;20203;-86
2022/11/28 08:04:23;;;;;;;0.30;0.30;;;;;;;8.06;78.54;100457.03;5144393;28;20088;-86
2022/11/28 08:06:54;;;;;;;0.95;0.90;;;;;;;8.10;78.17;100463.09;5170154;28;20125;-86
2022/11/28 08:09:24;;;;;;;0.95;0.95;;;;;;;8.08;78.72;100460.47;5162756;28;20037;-85
2022/11/28 08:11:55;;;;;;;0.50;0.50;;;;;;;8.06;78.45;100472.72;5125905;28;20653;-86
2022/11/28 08:14:25;;;;;;;1.05;1.05;;;;;;;8.08;78.61;100468.31;5162356;28;20616;-86
2022/11/28 08:16:56;;;;;;;1.10;1.05;;;;;;;8.07;78.72;100473.59;5160685;28;20030;-85
2022/11/28 08:19:26;;;;;;;1.63;1.40;;;;;;;8.08;78.32;100470.94;5128849;28;20037;-85
2022/11/28 08:21:57;;;;;;;1.95;1.52;;;;;;;8.08;78.45;100470.94;5161774;28;20034;-85
2022/11/28 08:24:27;;;;;;;2.78;1.50;;;;;;;8.06;79.06;100472.72;5161910;28;20113;-86
2022/11/28 08:26:57;;;;;;;0.90;0.90;;;;;;;8.09;78.63;100475.28;5164065;28;20026;-86
2022/11/28 08:29:28;;;;;;;0.47;0.47;;;;;;;8.14;78.17;100469.94;5149396;28;20072;-85
2022/11/28 08:31:59;;;;;;;3.30;1.38;;;;;;;8.13;78.57;100469.09;5142349;28;20117;-86
2022/11/28 08:34:29;;;;;;;0.70;0.70;;;;;;;8.15;78.13;100472.53;5139384;28;20030;-85
2022/11/28 08:37:00;;;;;;;0.30;0.30;;;;;;;8.15;78.60;100471.69;5130366;28;20480;-85
2022/11/28 08:39:31;;;;;;;1.27;1.17;;;;;;;8.13;78.47;100473.44;5126888;28;20060;-85
2022/11/28 08:42:01;;;;;;;0.70;0.70;;;;;;;8.23;78.57;100479.34;5158692;28;20065;-86
2022/11/28 08:44:32;;;;;;;0.68;0.68;;;;;;;8.23;78.22;100481.94;5142497;28;20109;-86
2022/11/28 08:47:03;;;;;;;1.67;1.58;;;;;;;8.16;78.42;100476.88;5178805;28;20545;-86
2022/11/28 08:49:35;;;;;;;0.68;0.68;;;;;;;8.19;78.31;100476.81;5134173;28;20064;-87
2022/11/28 08:52:06;;;;;;;0.68;0.68;;;;;;;8.22;78.12;100482.88;5142633;28;20033;-88
2022/11/28 08:54:37;;;;;;;1.05;1.05;;;;;;;8.21;77.96;100486.38;5145781;28;20034;-85
2022/11/28 08:57:07;;;;;;;1.23;1.05;;;;;;;8.15;79.34;100482.97;5160286;28;20054;-88
2022/11/28 08:59:37;;;;;;;6.65;2.17;;;;;;;8.21;78.77;100486.38;5142608;28;20045;-87
2022/11/28 09:02:11;;;;;;;0.60;0.60;;;;;;;8.21;78.18;100486.38;5163389;28;20485;-85
2022/11/28 09:04:42;;;;;;;0.70;0.70;;;;;;;8.23;78.77;100487.19;5160969;28;20030;-86
2022/11/28 09:07:12;;;;;;;1.55;1.45;;;;;;;8.25;78.29;100493.25;5146184;28;20057;-87
2022/11/28 09:09:43;;;;;;;1.23;1.15;;;;;;;8.23;78.35;100488.06;5159863;28;20021;-87
2022/11/28 09:12:13;;;;;;;0.80;0.80;;;;;;;8.23;78.92;100495.91;5159319;28;20068;-85
2022/11/28 09:14:44;;;;;;;1.33;1.23;;;;;;;8.25;78.46;100498.47;5143790;28;20456;-84
2022/11/28 09:17:14;;;;;;;0.98;0.98;;;;;;;8.23;78.50;100493.28;5177238;28;20077;-84
2022/11/28 09:19:45;;;;;;;0.45;0.45;;;;;;;8.38;77.95;100499.94;5163194;28;20251;-85
2022/11/28 09:22:15;;;;;;;0.40;0.40;;;;;;;8.30;78.36;100499.25;5148938;28;20072;-85
2022/11/28 09:24:46;;;;;;;0.40;0.40;;;;;;;8.25;78.89;100508.94;5160561;28;20050;-85
2022/11/28 09:27:16;;;;;;;0.38;0.38;;;;;;;8.22;78.44;100502.00;5148394;28;20044;-85
2022/11/28 09:29:46;;;;;;;1.10;1.10;;;;;;;8.23;78.84;100513.31;5163181;28;20109;-85
2022/11/28 09:32:17;;;;;;;0.98;0.98;;;;;;;8.23;79.06;100510.69;5143665;28;20776;-85
2022/11/28 09:34:50;;;;;;;1.05;1.05;;;;;;;8.28;78.84;100514.09;5128035;28;20527;-83
2022/11/28 09:37:20;;;;;;;0.73;0.73;;;;;;;8.23;79.15;100508.97;5158059;28;20522;-84
2022/11/28 09:39:51;;;;;;;0.60;0.60;;;;;;;8.25;78.83;100514.16;5161280;28;20098;-85
2022/11/28 09:42:31;;;;;;;0.98;0.95;;;;;;;8.29;78.91;100515.81;5141533;28;20040;-85
2022/11/28 09:45:06;;;;;;;1.40;1.10;;;;;;;8.25;79.02;100508.94;5140841;28;20451;-84
2022/11/28 09:47:40;;;;;;;0.57;0.57;;;;;;;8.26;79.02;100519.38;5137533;28;20504;-85
2022/11/28 09:50:22;;;;;;;0.60;0.60;;;;;;;8.28;78.92;100514.09;5157035;28;20749;-84
2022/11/28 09:53:11;;;;;;;3.35;1.67;;;;;;;8.30;79.08;100512.31;5157965;28;20046;-85
2022/11/28 09:55:59;;;;;;;1.25;1.23;;;;;;;8.31;78.93;100503.56;5159744;28;20157;-85
2022/11/28 09:58:38;;;;;;;0.32;0.32;;;;;;;8.37;78.57;100507.81;5126859;28;20350;-85
2022/11/28 10:01:16;;;;;;;1.27;1.17;;;;;;;8.34;78.86;100507.00;5158356;28;20030;-85
2022/11/28 10:04:16;;;;;;;1.30;1.25;;;;;;;8.37;78.75;100513.91;5162081;28;20057;-85
2022/11/28 10:06:59;;;;;;;0.40;0.40;;;;;;;8.38;79.40;100506.91;5156793;28;20686;-85
2022/11/28 10:09:41;;;;;;;0.70;0.57;;;;;;;8.40;79.07;100502.53;5157073;28;20321;-86
2022/11/28 10:12:14;;;;;;;0.60;0.60;;;;;;;8.41;78.97;100497.25;5127644;28;20097;-86
2022/11/28 10:15:06;;;;;;;0.50;0.50;;;;;;;8.43;79.14;100500.69;5140528;28;20034;-86
2022/11/28 10:17:43;;;;;;;0.57;0.57;;;;;;;8.47;78.67;100499.75;5167685;28;20056;-86
2022/11/28 10:20:38;;;;;;;0.60;0.60;;;;;;;8.45;79.23;100500.66;5153624;28;20034;-85
2022/11/28 10:23:31;;;;;;;0.77;0.77;;;;;;;8.47;79.22;100497.13;5131246;28;20073;-85
2022/11/28 10:26:13;;;;;;;0.70;0.70;;;;;;;8.46;79.50;100492.81;5126990;28;20659;-86
2022/11/28 10:28:49;;;;;;;0.57;0.57;;;;;;;8.50;79.59;100496.25;5139789;28;20040;-86
2022/11/28 10:31:29;;;;;;;0.82;0.82;;;;;;;8.50;79.90;100497.09;5138998;28;20035;-86
2022/11/28 10:34:11;;;;;;;1.05;1.05;;;;;;;8.52;79.83;100494.44;5162589;28;20033;-84
2022/11/28 10:36:47;;;;;;;2.35;1.25;;;;;;;8.57;79.88;100495.19;5173887;28;20058;-84
2022/11/28 10:39:18;;;;;;;1.55;1.45;;;;;;;8.61;79.37;100496.00;5169684;28;20042;-85
2022/11/28 10:42:10;;;;;;;1.50;1.40;;;;;;;8.62;79.79;100500.34;5144738;28;20034;-83
2022/11/28 10:44:59;;;;;;;1.60;1.50;;;;;;;8.62;80.04;100497.72;5163114;28;20022;-85
2022/11/28 10:47:48;;;;;;;0.38;0.38;;;;;;;8.64;79.79;100490.66;5145348;28;20164;-85
2022/11/28 10:50:37;;;;;;;0.50;0.50;;;;;;;8.73;79.63;100505.31;5122712;28;20361;-84
2022/11/28 10:53:46;;;;;;;0.77;0.77;;;;;;;8.75;79.83;100500.91;5145804;28;20026;-84
2022/11/28 10:56:29;;;;;;;0.68;0.68;;;;;;;8.73;80.28;100495.69;5116850;28;20045;-84
2022/11/28 10:59:09;;;;;;;0.32;0.32;;;;;;;8.75;79.65;100499.16;5145525;28;20034;-84
2022/11/28 11:01:40;;;;;;;0.43;0.43;;;;;;;8.76;79.54;100500.03;5158838;28;20058;-84
2022/11/28 11:04:21;;;;;;;0.40;0.40;;;;;;;8.76;79.41;100500.88;5159335;28;20049;-84
2022/11/28 11:07:15;;;;;;;0.63;0.63;;;;;;;8.75;80.14;100496.53;5151618;28;20046;-83
2022/11/28 11:09:46;;;;;;;0.40;0.40;;;;;;;8.76;80.38;100490.41;5159200;28;20038;-85
2022/11/28 11:12:25;;;;;;;0.40;0.40;;;;;;;8.76;80.05;100486.94;5163942;28;20041;-85
2022/11/28 11:14:56;;;;;;;1.05;1.05;;;;;;;8.76;80.28;100485.19;5174055;28;20045;-85
2022/11/28 11:17:33;;;;;;;0.43;0.43;;;;;;;8.77;79.89;100484.28;5144179;28;20366;-88
2022/11/28 11:20:32;;;;;;;0.73;0.73;;;;;;;8.79;80.14;100485.13;5166768;28;20045;-87
2022/11/28 11:23:17;;;;;;;1.15;1.05;;;;;;;8.82;79.88;100485.03;5165971;28;20053;-85
2022/11/28 11:25:52;;;;;;;1.42;1.00;;;;;;;8.79;80.13;100479.00;5154280;28;20038;-87
2022/11/28 11:28:41;;;;;;;0.50;0.50;;;;;;;8.79;80.38;100487.72;5154945;28;20041;-85
2022/11/28 11:31:24;;;;;;;1.25;1.15;;;;;;;8.81;80.43;100492.91;5165545;28;20334;-88
2022/11/28 11:34:04;;;;;;;0.50;0.50;;;;;;;8.79;80.42;100490.34;5152617;28;20022;-86
2022/11/28 11:36:36;;;;;;;0.65;0.65;;;;;;;8.79;80.57;100490.34;5168841;28;20030;-85
2022/11/28 11:39:21;;;;;;;1.00;0.93;;;;;;;8.82;80.24;100498.09;5173053;28;20038;-87
2022/11/28 11:42:00;;;;;;;0.60;0.60;;;;;;;8.85;80.20;100499.78;5160706;28;20038;-86
2022/11/28 11:44:33;;;;;;;2.03;1.42;;;;;;;8.88;80.11;100498.88;5153400;28;20843;-87
2022/11/28 11:47:04;;;;;;;0.30;0.30;;;;;;;8.91;79.62;100496.16;5163654;28;20048;-87
2022/11/28 11:49:44;;;;;;;0.30;0.30;;;;;;;8.94;79.58;100501.34;5166010;28;20038;-86
2022/11/28 11:52:24;;;;;;;0.88;0.65;;;;;;;8.84;80.77;100494.59;5164923;28;20037;-85
2022/11/28 11:54:57;;;;;;;1.27;0.93;;;;;;;8.86;80.22;100500.66;5137958;28;20539;-85
2022/11/28 11:57:35;;;;;;;0.30;0.30;;;;;;;8.87;80.69;100492.75;5168166;28;20044;-87
2022/11/28 12:00:10;;;;;;;0.40;0.40;;;;;;;8.90;80.27;100499.69;5151865;28;20604;-86
2022/11/28 12:03:05;;;;;;;1.40;0.88;;;;;;;8.86;80.58;100496.28;5144444;28;20469;-86
2022/11/28 12:05:53;;;;;;;0.82;0.82;;;;;;;8.88;80.48;100498.88;5167136;28;20026;-86
2022/11/28 12:08:59;;;;;;;0.52;0.52;;;;;;;8.90;80.39;100499.69;5152702;28;20045;-88
2022/11/28 12:11:34;;;;;;;0.43;0.43;;;;;;;8.91;80.40;100504.00;5103164;28;20039;-87
2022/11/28 12:14:20;;;;;;;0.70;0.70;;;;;;;8.87;80.88;100507.63;5152919;28;20034;-86